Time;durP1;ratioP1;P1;durP2;ratioP2;P2;SDS_P1;SDS_P2;PMS_P1;PMS_P2;Temp;Humidity;BMP_temperature;BMP_pressure;BME280_temperature;BME280_humidity;BME280_pressure;Samples;Min_cycle;Max_cycle;Signal;HPM_P1;HPM_P2
2022/03/16 00:01:54;;;;;;;37.63;25.07;;;8.00;99.90;;;;;;4990276;28;20547;-74
2022/03/16 00:04:20;;;;;;;43.07;23.83;;;8.00;99.90;;;;;;4973191;28;20189;-72
2022/03/16 00:06:46;;;;;;;38.90;23.60;;;7.90;99.90;;;;;;4990919;28;20478;-74
2022/03/16 00:09:11;;;;;;;37.87;24.80;;;7.90;99.90;;;;;;4990337;28;20824;-75
2022/03/16 00:11:37;;;;;;;39.10;25.43;;;7.90;99.90;;;;;;4989498;28;20213;-74
2022/03/16 00:14:03;;;;;;;34.70;24.40;;;7.90;99.90;;;;;;4985725;28;20639;-75
2022/03/16 00:16:28;;;;;;;35.77;23.80;;;7.90;99.90;;;;;;4986434;28;20190;-74
2022/03/16 00:18:54;;;;;;;38.37;24.40;;;7.90;99.90;;;;;;4989592;28;20204;-76
2022/03/16 00:21:19;;;;;;;39.50;25.33;;;7.90;99.90;;;;;;4989935;28;20204;-72
2022/03/16 00:23:45;;;;;;;38.20;24.70;;;7.90;99.90;;;;;;4989477;28;20176;-74
2022/03/16 00:26:10;;;;;;;41.20;24.03;;;7.90;99.90;;;;;;4991026;28;20222;-75
2022/03/16 00:28:36;;;;;;;40.57;26.03;;;7.90;99.90;;;;;;4987533;28;20316;-74
2022/03/16 00:31:05;;;;;;;34.03;24.03;;;7.90;99.90;;;;;;4988550;28;20204;-75
2022/03/16 00:33:31;;;;;;;36.80;23.80;;;7.80;99.90;;;;;;4989115;28;20180;-75
2022/03/16 00:35:57;;;;;;;36.70;23.97;;;7.90;99.90;;;;;;4991390;28;20413;-75
2022/03/16 00:38:22;;;;;;;37.50;24.80;;;7.90;99.90;;;;;;4989225;28;20550;-74
2022/03/16 00:40:48;;;;;;;36.77;25.70;;;7.90;99.90;;;;;;4989533;28;20186;-75
2022/03/16 00:43:14;;;;;;;40.60;25.10;;;7.90;99.90;;;;;;4990357;28;20748;-74
2022/03/16 00:45:40;;;;;;;40.77;25.47;;;7.80;99.90;;;;;;4991024;28;20189;-73
2022/03/16 00:48:05;;;;;;;37.83;24.20;;;7.80;99.90;;;;;;4989747;28;20472;-75
2022/03/16 00:50:32;;;;;;;44.10;26.07;;;7.80;99.90;;;;;;4989163;28;20198;-74
2022/03/16 00:52:58;;;;;;;46.03;28.47;;;7.80;99.90;;;;;;4990372;28;20200;-74
2022/03/16 00:55:23;;;;;;;40.70;26.43;;;7.90;99.90;;;;;;4989524;28;20428;-73
2022/03/16 00:57:49;;;;;;;39.67;24.97;;;7.80;99.90;;;;;;4991197;28;20209;-74
2022/03/16 01:00:15;;;;;;;41.83;26.03;;;7.90;99.90;;;;;;4989581;28;20196;-75
2022/03/16 01:02:40;;;;;;;45.70;28.10;;;7.80;99.90;;;;;;4989354;28;20215;-72
2022/03/16 01:05:06;;;;;;;45.37;28.10;;;7.80;99.90;;;;;;4989732;28;20644;-75
2022/03/16 01:07:32;;;;;;;44.17;27.63;;;7.80;99.90;;;;;;4989441;28;20289;-75
2022/03/16 01:09:57;;;;;;;45.10;29.13;;;7.90;99.90;;;;;;4989406;28;20836;-74
2022/03/16 01:12:23;;;;;;;45.87;28.57;;;7.90;99.90;;;;;;4990486;28;20229;-75
2022/03/16 01:14:49;;;;;;;43.17;27.90;;;7.90;99.90;;;;;;4988858;28;20189;-74
2022/03/16 01:17:15;;;;;;;47.43;28.10;;;7.80;99.90;;;;;;4991074;28;20850;-74
2022/03/16 01:19:40;;;;;;;47.03;29.73;;;7.80;99.90;;;;;;4989523;28;20182;-73
2022/03/16 01:22:06;;;;;;;45.17;27.33;;;7.80;99.90;;;;;;4989387;28;20260;-75
2022/03/16 01:24:32;;;;;;;47.83;29.57;;;7.80;99.90;;;;;;4988163;28;20452;-74
2022/03/16 01:26:58;;;;;;;50.93;30.60;;;7.80;99.90;;;;;;4989584;28;20189;-74
2022/03/16 01:29:24;;;;;;;49.60;29.60;;;7.80;99.90;;;;;;4989498;28;20448;-75
2022/03/16 01:31:52;;;;;;;53.43;30.30;;;7.80;99.90;;;;;;4990671;28;20454;-74
2022/03/16 01:34:18;;;;;;;51.60;29.80;;;7.70;99.90;;;;;;4990249;28;20179;-74
2022/03/16 01:36:44;;;;;;;57.10;33.30;;;7.70;99.90;;;;;;4973071;28;20491;-74
2022/03/16 01:39:09;;;;;;;55.57;32.73;;;7.70;99.90;;;;;;4988712;28;20429;-74
2022/03/16 01:41:35;;;;;;;55.57;31.00;;;7.70;99.90;;;;;;4990249;28;20202;-75
2022/03/16 01:44:01;;;;;;;55.27;30.77;;;7.80;99.90;;;;;;4990167;28;20585;-74
2022/03/16 01:46:27;;;;;;;49.67;29.20;;;7.80;99.90;;;;;;4976385;28;20457;-74
2022/03/16 01:48:53;;;;;;;50.50;30.00;;;7.70;99.90;;;;;;4993988;28;20919;-74
2022/03/16 01:51:19;;;;;;;47.60;28.13;;;7.70;99.90;;;;;;4992954;28;20212;-74
2022/03/16 01:53:45;;;;;;;49.27;30.37;;;7.80;99.90;;;;;;4991789;28;20172;-74
2022/03/16 01:56:10;;;;;;;53.00;29.17;;;7.80;99.90;;;;;;4992830;28;20901;-75
2022/03/16 01:58:36;;;;;;;56.13;31.70;;;7.80;99.90;;;;;;4992722;28;20189;-75
2022/03/16 03:32:09;;;;;;;73.07;36.13;;;7.70;99.90;;;;;;5531058;22;20499;-68
2022/03/16 03:34:34;;;;;;;66.50;35.20;;;7.70;99.90;;;;;;5011370;28;20428;-68
2022/03/16 03:37:00;;;;;;;73.97;37.57;;;7.70;99.90;;;;;;5012985;28;20173;-69
2022/03/16 03:39:25;;;;;;;65.93;36.30;;;7.80;99.90;;;;;;5007611;28;20183;-68
2022/03/16 03:41:51;;;;;;;65.30;35.77;;;7.70;99.90;;;;;;4996747;28;20206;-68
2022/03/16 03:44:16;;;;;;;70.83;37.50;;;7.80;99.90;;;;;;4991000;28;20223;-69
2022/03/16 03:46:42;;;;;;;64.07;33.80;;;7.80;99.90;;;;;;4992662;28;20201;-68
2022/03/16 03:49:07;;;;;;;63.77;35.17;;;7.70;99.90;;;;;;4992237;28;20218;-69
2022/03/16 03:51:33;;;;;;;74.93;36.77;;;7.70;99.90;;;;;;4992239;28;20193;-69
2022/03/16 03:53:58;;;;;;;66.27;36.07;;;7.70;99.90;;;;;;4992094;28;20207;-69
2022/03/16 03:56:24;;;;;;;77.90;37.67;;;7.70;99.90;;;;;;4991271;28;20180;-69
2022/03/16 03:58:50;;;;;;;74.93;36.40;;;7.70;99.90;;;;;;4992755;28;20269;-69
2022/03/16 04:01:18;;;;;;;72.47;37.07;;;7.70;99.90;;;;;;4991945;28;20232;-69
2022/03/16 04:03:44;;;;;;;68.73;34.57;;;7.70;99.90;;;;;;4990530;28;20214;-69
2022/03/16 04:06:10;;;;;;;72.77;36.50;;;7.80;99.90;;;;;;4991241;28;20453;-69
2022/03/16 04:08:36;;;;;;;73.37;37.70;;;7.70;99.90;;;;;;4991998;28;20642;-69
2022/03/16 04:11:02;;;;;;;76.97;38.20;;;7.70;99.90;;;;;;4990765;28;20491;-69
2022/03/16 04:13:28;;;;;;;72.43;35.20;;;7.70;99.90;;;;;;4992007;28;20208;-69
2022/03/16 04:15:53;;;;;;;71.70;37.23;;;7.70;99.90;;;;;;4992087;28;20424;-68
2022/03/16 04:18:19;;;;;;;65.90;35.33;;;7.60;99.90;;;;;;4991859;28;20715;-68
2022/03/16 04:20:45;;;;;;;76.27;37.00;;;7.70;99.90;;;;;;4991954;28;20288;-69
2022/03/16 04:23:10;;;;;;;74.63;35.77;;;7.60;99.90;;;;;;4991857;28;20801;-69
2022/03/16 04:25:36;;;;;;;70.33;34.00;;;7.60;99.90;;;;;;4992312;28;20698;-69
2022/03/16 04:28:02;;;;;;;67.97;36.20;;;7.70;99.90;;;;;;4991979;28;20213;-69
2022/03/16 04:30:27;;;;;;;69.70;36.97;;;7.70;99.90;;;;;;4991983;28;20173;-69
2022/03/16 04:32:53;;;;;;;69.60;33.07;;;7.70;99.90;;;;;;4991787;28;20484;-69
2022/03/16 04:35:20;;;;;;;69.97;36.67;;;7.70;99.90;;;;;;4991785;28;20265;-69
2022/03/16 04:37:46;;;;;;;69.17;37.00;;;7.70;99.90;;;;;;4992161;28;20273;-69
2022/03/16 04:40:13;;;;;;;71.73;37.70;;;7.80;99.90;;;;;;4991518;28;20780;-69
2022/03/16 04:42:38;;;;;;;71.03;37.40;;;7.70;99.90;;;;;;4991673;28;20468;-69
2022/03/16 04:45:05;;;;;;;70.63;36.20;;;7.70;99.90;;;;;;4991413;28;20427;-69
2022/03/16 04:47:30;;;;;;;64.80;37.60;;;7.70;99.90;;;;;;4991405;28;20388;-69
2022/03/16 04:49:56;;;;;;;67.33;39.00;;;7.70;99.90;;;;;;4991420;28;20410;-69
2022/03/16 04:52:22;;;;;;;72.47;36.27;;;7.70;99.90;;;;;;4991121;28;20221;-69
2022/03/16 04:54:48;;;;;;;79.97;39.97;;;7.70;99.90;;;;;;4991284;28;20182;-69
2022/03/16 04:57:14;;;;;;;67.80;36.07;;;7.70;99.90;;;;;;4991594;28;20458;-69
2022/03/16 04:59:39;;;;;;;70.27;36.30;;;7.70;99.90;;;;;;4991403;28;20196;-69
2022/03/16 05:02:05;;;;;;;76.17;37.77;;;7.70;99.90;;;;;;4991173;28;20828;-69
2022/03/16 05:04:31;;;;;;;70.93;37.07;;;7.70;99.90;;;;;;4991355;28;20263;-68
2022/03/16 05:06:57;;;;;;;70.70;37.93;;;7.60;99.90;;;;;;4991247;28;20183;-68
2022/03/16 05:09:22;;;;;;;75.00;37.17;;;7.60;99.90;;;;;;4991057;28;20284;-69
2022/03/16 05:11:48;;;;;;;73.87;38.13;;;7.60;99.90;;;;;;4991349;28;20506;-69
2022/03/16 05:14:13;;;;;;;79.77;39.00;;;7.70;99.90;;;;;;4990717;28;20182;-68
2022/03/16 05:16:39;;;;;;;82.13;40.13;;;7.70;99.90;;;;;;4991378;28;20628;-69
2022/03/16 05:19:05;;;;;;;82.87;39.17;;;7.70;99.90;;;;;;4993698;28;20188;-69
2022/03/16 05:21:31;;;;;;;82.37;40.87;;;7.60;99.90;;;;;;4995153;28;20200;-69
2022/03/16 05:23:56;;;;;;;81.40;41.00;;;7.60;99.90;;;;;;4994895;28;20186;-69
2022/03/16 05:26:22;;;;;;;79.03;40.40;;;7.60;99.90;;;;;;4995124;28;20271;-70
2022/03/16 05:28:48;;;;;;;78.17;37.50;;;7.70;99.90;;;;;;4994698;28;20707;-70
2022/03/16 05:31:13;;;;;;;73.97;38.13;;;7.70;99.90;;;;;;4994770;28;20211;-68
2022/03/16 05:33:39;;;;;;;84.43;38.73;;;7.60;99.90;;;;;;4993641;28;20560;-69
2022/03/16 05:36:04;;;;;;;78.33;39.67;;;7.70;99.90;;;;;;4995039;28;20260;-69
2022/03/16 05:38:31;;;;;;;78.57;41.07;;;7.70;99.90;;;;;;4994786;28;20185;-68
2022/03/16 05:40:56;;;;;;;76.83;40.17;;;7.80;99.90;;;;;;4994886;28;20212;-68
2022/03/16 05:43:22;;;;;;;85.13;41.50;;;7.80;99.90;;;;;;4994744;28;20458;-69
2022/03/16 05:45:49;;;;;;;84.53;40.30;;;7.70;99.90;;;;;;4994932;28;20203;-69
2022/03/16 05:48:15;;;;;;;77.13;40.83;;;7.70;99.90;;;;;;4993282;28;20600;-69
2022/03/16 05:50:44;;;;;;;83.97;40.80;;;7.70;99.90;;;;;;4994558;28;20508;-68
2022/03/16 05:53:10;;;;;;;74.30;38.67;;;7.70;99.90;;;;;;4994673;28;20869;-69
2022/03/16 05:55:36;;;;;;;81.33;40.63;;;7.70;99.90;;;;;;4994849;28;20420;-69
2022/03/16 05:58:01;;;;;;;87.20;41.17;;;7.70;99.90;;;;;;4994723;28;20514;-69
2022/03/16 06:00:27;;;;;;;82.63;42.60;;;7.80;99.90;;;;;;4994409;28;20188;-69
2022/03/16 06:02:53;;;;;;;81.93;41.20;;;7.80;99.90;;;;;;4994033;28;20183;-70
2022/03/16 06:05:19;;;;;;;92.20;42.07;;;7.80;99.90;;;;;;4994332;28;20203;-69
2022/03/16 06:07:45;;;;;;;82.57;40.07;;;7.80;99.90;;;;;;4994175;28;20463;-69
2022/03/16 06:10:15;;;;;;;76.50;39.60;;;7.80;99.90;;;;;;4992955;28;20270;-70
2022/03/16 06:12:59;;;;;;;73.43;40.00;;;7.80;99.90;;;;;;4994306;28;20199;-70
2022/03/16 06:15:26;;;;;;;82.70;38.77;;;7.80;99.90;;;;;;4994063;28;20425;-69
2022/03/16 06:17:54;;;;;;;72.87;37.70;;;7.80;99.90;;;;;;4994041;28;20442;-70
2022/03/16 06:20:19;;;;;;;84.50;40.83;;;7.80;99.90;;;;;;4993710;28;20428;-69
2022/03/16 06:22:45;;;;;;;73.70;36.50;;;7.90;99.90;;;;;;4990649;28;20797;-69
2022/03/16 06:25:10;;;;;;;78.50;37.27;;;7.90;99.90;;;;;;4994007;28;20186;-69
2022/03/16 06:27:36;;;;;;;71.10;37.47;;;7.90;99.90;;;;;;4993608;28;20288;-69
2022/03/16 06:30:01;;;;;;;69.40;37.40;;;7.80;99.90;;;;;;4985645;28;20172;-69
2022/03/16 06:32:28;;;;;;;71.40;36.83;;;7.80;99.90;;;;;;4990590;28;20215;-69
2022/03/16 06:34:53;;;;;;;72.53;35.97;;;7.80;99.90;;;;;;4990854;28;20266;-69
2022/03/16 06:37:19;;;;;;;74.20;38.13;;;7.80;99.90;;;;;;4992185;28;20533;-69
2022/03/16 06:39:44;;;;;;;75.67;37.57;;;7.80;99.90;;;;;;4992202;28;20182;-71
2022/03/16 06:42:10;;;;;;;70.57;35.10;;;7.90;99.90;;;;;;4992025;28;20228;-71
2022/03/16 06:44:35;;;;;;;76.83;37.60;;;7.80;99.90;;;;;;4991813;28;20249;-71
2022/03/16 06:47:01;;;;;;;65.47;35.57;;;7.80;99.90;;;;;;4993620;28;20307;-71
2022/03/16 06:49:27;;;;;;;72.17;35.37;;;7.90;99.90;;;;;;4993625;28;20702;-71
2022/03/16 06:51:53;;;;;;;73.87;35.30;;;7.80;99.90;;;;;;4993866;28;20449;-71
2022/03/16 06:54:18;;;;;;;75.10;35.37;;;7.80;99.90;;;;;;4993731;28;20263;-71
2022/03/16 06:56:44;;;;;;;76.60;34.37;;;7.80;99.90;;;;;;4993712;28;20579;-70
2022/03/16 06:59:09;;;;;;;65.17;32.63;;;7.80;99.90;;;;;;4993415;28;20182;-71
2022/03/16 07:01:35;;;;;;;63.67;32.60;;;7.80;99.90;;;;;;4993352;28;20222;-71
2022/03/16 07:04:01;;;;;;;72.40;33.87;;;7.90;99.90;;;;;;4993444;28;20452;-71
2022/03/16 07:06:26;;;;;;;69.67;33.33;;;7.90;99.90;;;;;;4993447;28;20214;-71
2022/03/16 07:08:52;;;;;;;65.57;33.70;;;7.90;99.90;;;;;;4992940;28;20235;-71
2022/03/16 07:11:17;;;;;;;62.00;33.30;;;7.90;99.90;;;;;;4993194;28;20216;-71
2022/03/16 07:14:30;;;;;;;58.20;32.10;;;7.90;99.90;;;;;;4993337;28;20180;-71
2022/03/16 07:16:29;;;;;;;61.20;30.40;;;7.90;99.90;;;;;;4995057;28;20208;-71
2022/03/16 07:18:55;;;;;;;65.70;31.30;;;7.90;99.90;;;;;;4993743;28;20423;-71
2022/03/16 07:21:21;;;;;;;68.27;31.47;;;7.80;99.90;;;;;;4992928;28;20797;-71
2022/03/16 07:23:46;;;;;;;60.90;31.30;;;7.80;99.90;;;;;;4992936;28;20423;-71
2022/03/16 07:26:12;;;;;;;58.60;29.67;;;7.90;99.90;;;;;;4993301;28;20192;-71
2022/03/16 07:28:37;;;;;;;62.90;32.70;;;7.90;99.90;;;;;;4992759;28;20268;-71
2022/03/16 07:31:04;;;;;;;62.10;33.80;;;7.90;99.90;;;;;;4993011;28;20650;-71
2022/03/16 07:33:33;;;;;;;64.70;32.60;;;7.90;99.90;;;;;;4991427;28;20179;-71
2022/03/16 07:35:58;;;;;;;59.87;29.53;;;7.90;99.90;;;;;;4991850;28;20890;-71
2022/03/16 07:38:24;;;;;;;60.53;31.67;;;7.90;99.90;;;;;;4992781;28;20431;-71
2022/03/16 07:40:49;;;;;;;60.13;33.30;;;7.90;99.90;;;;;;4992740;28;20210;-71
2022/03/16 07:43:15;;;;;;;53.37;30.17;;;7.90;99.90;;;;;;4992633;28;20187;-71
2022/03/16 07:45:41;;;;;;;54.60;28.70;;;7.90;99.90;;;;;;4993274;28;20200;-70
2022/03/16 07:48:06;;;;;;;61.70;30.20;;;8.00;99.90;;;;;;4992652;28;20591;-71
2022/03/16 07:50:33;;;;;;;54.10;29.60;;;7.90;99.90;;;;;;4991652;28;20196;-71
2022/03/16 07:52:58;;;;;;;55.53;29.93;;;7.90;99.90;;;;;;4990975;28;20724;-73
2022/03/16 07:55:24;;;;;;;56.10;30.57;;;7.90;99.90;;;;;;4991626;28;20515;-74
2022/03/16 07:57:52;;;;;;;59.93;29.90;;;7.80;99.90;;;;;;4991081;28;20658;-73
2022/03/16 08:00:18;;;;;;;58.43;29.97;;;7.90;99.90;;;;;;4987991;28;20446;-73
2022/03/16 08:02:44;;;;;;;52.83;29.63;;;7.90;99.90;;;;;;4990663;28;20421;-73
2022/03/16 08:05:10;;;;;;;56.40;29.80;;;7.90;99.90;;;;;;4991853;28;20450;-74
2022/03/16 08:07:38;;;;;;;52.20;28.87;;;7.90;99.90;;;;;;4991909;28;20464;-73
2022/03/16 08:10:05;;;;;;;54.43;28.73;;;8.00;99.90;;;;;;4991668;28;20173;-74
2022/03/16 08:12:30;;;;;;;52.60;28.70;;;8.00;99.90;;;;;;4991946;28;20432;-74
2022/03/16 08:14:56;;;;;;;45.17;26.40;;;7.90;99.90;;;;;;4991557;28;20416;-74
2022/03/16 08:17:22;;;;;;;49.83;29.33;;;7.90;99.90;;;;;;4991388;28;20185;-73
2022/03/16 08:19:48;;;;;;;50.63;26.97;;;8.00;99.90;;;;;;4991666;28;20181;-74
2022/03/16 08:22:23;;;;;;;53.17;28.57;;;7.90;99.90;;;;;;4991580;28;20435;-74
2022/03/16 08:24:51;;;;;;;51.93;27.67;;;7.90;99.90;;;;;;4991458;28;20204;-74
2022/03/16 08:27:16;;;;;;;46.87;28.07;;;7.90;99.90;;;;;;4991417;28;20484;-73
2022/03/16 08:29:42;;;;;;;47.67;27.97;;;7.90;99.90;;;;;;4991257;28;20963;-73
2022/03/16 08:32:08;;;;;;;47.23;27.43;;;7.90;99.90;;;;;;4989976;28;20300;-74
2022/03/16 08:34:33;;;;;;;47.17;27.07;;;7.90;99.90;;;;;;4991341;28;20448;-73
2022/03/16 08:37:00;;;;;;;44.47;27.30;;;7.90;99.90;;;;;;4991640;28;20204;-73
2022/03/16 08:39:26;;;;;;;43.40;26.73;;;7.90;99.90;;;;;;4990831;28;20208;-73
2022/03/16 08:41:52;;;;;;;42.80;26.07;;;7.90;99.90;;;;;;4991565;28;20441;-73
2022/03/16 08:44:17;;;;;;;42.27;26.07;;;8.00;99.90;;;;;;4990859;28;20256;-74
2022/03/16 08:46:43;;;;;;;46.80;26.83;;;8.00;99.90;;;;;;4991478;28;20265;-73
2022/03/16 08:49:08;;;;;;;52.43;27.17;;;8.00;99.90;;;;;;4990506;28;20584;-74
2022/03/16 08:51:34;;;;;;;46.13;25.87;;;8.10;99.90;;;;;;4991478;28;20671;-73
2022/03/16 08:53:59;;;;;;;50.63;26.73;;;8.10;99.90;;;;;;4996410;28;20177;-74
2022/03/16 08:56:25;;;;;;;41.60;24.97;;;8.10;99.90;;;;;;4996735;28;20177;-73
2022/03/16 08:58:50;;;;;;;42.23;24.50;;;8.10;99.90;;;;;;4997619;28;20536;-73
2022/03/16 09:01:16;;;;;;;42.60;25.50;;;8.10;99.90;;;;;;4997752;28;20222;-73
2022/03/16 09:03:41;;;;;;;57.23;25.63;;;8.10;99.90;;;;;;4997765;28;20189;-74
2022/03/16 09:06:08;;;;;;;42.13;25.57;;;8.20;99.90;;;;;;4997549;28;20180;-74
2022/03/16 09:08:34;;;;;;;39.20;23.53;;;8.30;99.90;;;;;;4997676;28;20349;-73
2022/03/16 09:10:59;;;;;;;40.23;24.83;;;8.40;99.90;;;;;;4997946;28;20510;-73
2022/03/16 09:13:25;;;;;;;44.10;24.30;;;8.50;99.90;;;;;;4997267;28;20181;-73
2022/03/16 09:15:53;;;;;;;41.90;25.63;;;8.50;99.90;;;;;;4997957;28;20178;-74
2022/03/16 09:18:19;;;;;;;40.40;24.97;;;8.60;99.90;;;;;;4997602;28;20617;-74
2022/03/16 09:20:44;;;;;;;40.90;25.50;;;8.60;99.90;;;;;;4997672;28;20451;-74
2022/03/16 09:23:10;;;;;;;48.00;27.63;;;8.50;99.90;;;;;;4997244;28;20201;-73
2022/03/16 09:25:36;;;;;;;47.77;26.70;;;8.50;99.90;;;;;;4998019;28;20185;-74
2022/03/16 09:28:02;;;;;;;41.73;26.23;;;8.50;99.90;;;;;;4997429;28;20235;-73
2022/03/16 09:30:27;;;;;;;42.83;26.30;;;8.60;99.90;;;;;;4997492;28;20189;-74
2022/03/16 09:32:57;;;;;;;42.17;25.57;;;8.70;99.90;;;;;;4997631;28;20450;-72
2022/03/16 09:35:24;;;;;;;41.07;23.20;;;8.70;99.90;;;;;;4997287;28;20181;-73
2022/03/16 09:37:50;;;;;;;38.23;23.57;;;8.80;99.90;;;;;;4998209;28;20420;-74
2022/03/16 09:40:17;;;;;;;37.00;22.17;;;8.90;99.90;;;;;;4997168;28;20772;-74
2022/03/16 09:42:45;;;;;;;40.40;25.67;;;9.10;99.90;;;;;;4997926;28;20423;-74
2022/03/16 09:45:17;;;;;;;36.07;23.93;;;9.10;99.90;;;;;;4997507;28;20447;-74
2022/03/16 09:47:44;;;;;;;39.87;24.87;;;9.10;99.90;;;;;;4998198;28;20541;-70
2022/03/16 09:50:10;;;;;;;43.53;24.00;;;9.20;99.90;;;;;;4998094;28;20439;-71
2022/03/16 09:52:36;;;;;;;40.20;24.43;;;9.30;99.90;;;;;;4998138;28;20432;-70
2022/03/16 09:55:05;;;;;;;38.90;24.70;;;9.20;99.90;;;;;;4997767;28;20179;-70
2022/03/16 09:57:30;;;;;;;46.03;25.30;;;9.30;99.90;;;;;;4997850;28;20201;-70
2022/03/16 09:59:56;;;;;;;43.23;25.17;;;9.30;99.90;;;;;;4997429;28;20433;-70
2022/03/16 10:02:22;;;;;;;39.70;23.00;;;9.40;99.90;;;;;;4997374;28;20683;-70
2022/03/16 10:04:47;;;;;;;40.17;24.83;;;9.60;99.90;;;;;;4994647;28;20249;-70
2022/03/16 10:07:13;;;;;;;43.47;24.37;;;9.70;99.90;;;;;;4993380;28;20181;-70
2022/03/16 10:15:19;;;;;;;41.80;22.93;;;10.10;99.90;;;;;;4995128;28;20414;-70
2022/03/16 10:17:50;;;;;;;38.90;24.83;;;10.10;99.90;;;;;;4995146;28;20503;-70
2022/03/16 10:20:30;;;;;;;39.67;24.23;;;10.10;99.90;;;;;;4995196;28;20507;-70
2022/03/16 10:23:07;;;;;;;36.87;23.30;;;10.00;99.90;;;;;;4993778;28;20421;-70
2022/03/16 10:25:45;;;;;;;44.73;26.00;;;10.00;99.90;;;;;;4994948;28;20416;-70
2022/03/16 10:28:22;;;;;;;36.67;21.60;;;10.10;99.90;;;;;;4994374;28;20473;-70
2022/03/16 10:31:02;;;;;;;40.07;24.40;;;10.30;99.90;;;;;;4994655;28;20444;-71
2022/03/16 10:33:36;;;;;;;33.13;21.23;;;10.50;99.90;;;;;;4994935;28;20405;-70
2022/03/16 10:36:11;;;;;;;35.80;22.70;;;10.70;99.90;;;;;;4995048;28;20416;-72
2022/03/16 10:38:45;;;;;;;36.20;22.30;;;11.00;99.90;;;;;;4996215;28;20409;-70
2022/03/16 10:46:59;;;;;;;45.23;21.37;;;11.30;99.90;;;;;;4994587;28;20481;-75
2022/03/16 10:49:30;;;;;;;33.90;20.73;;;11.50;99.90;;;;;;4994092;28;21346;-72
2022/03/16 10:52:11;;;;;;;39.93;21.37;;;11.50;99.90;;;;;;4998615;28;20704;-73
2022/03/16 10:54:37;;;;;;;32.23;20.40;;;11.60;99.90;;;;;;4997250;28;20430;-74
2022/03/16 10:57:13;;;;;;;29.53;20.47;;;11.70;99.90;;;;;;4995649;28;20499;-72
2022/03/16 10:59:43;;;;;;;34.53;20.07;;;11.90;99.90;;;;;;4996829;28;20397;-70
2022/03/16 11:02:14;;;;;;;32.10;20.10;;;12.10;99.90;;;;;;4996921;28;20437;-70
2022/03/16 11:04:44;;;;;;;29.10;19.53;;;12.30;99.90;;;;;;4997364;28;20421;-73
2022/03/16 11:07:11;;;;;;;30.70;20.27;;;12.50;99.90;;;;;;4996817;28;20521;-71
2022/03/16 11:09:39;;;;;;;32.33;18.93;;;12.60;99.90;;;;;;4995206;28;20502;-73
2022/03/16 11:14:52;;;;;;;27.30;18.77;;;12.60;99.90;;;;;;4997149;28;20681;-69
2022/03/16 11:17:19;;;;;;;29.30;19.17;;;12.30;99.90;;;;;;4996057;28;20446;-69
2022/03/16 11:19:47;;;;;;;27.00;18.43;;;12.50;99.90;;;;;;4996528;28;20413;-71
2022/03/16 11:22:24;;;;;;;26.33;19.30;;;12.20;99.90;;;;;;4992246;28;20545;-70
2022/03/16 11:25:00;;;;;;;27.03;18.77;;;12.50;99.90;;;;;;4974857;28;20408;-72
2022/03/16 11:27:40;;;;;;;30.70;20.20;;;12.60;99.90;;;;;;4992439;28;20433;-73
2022/03/16 11:30:09;;;;;;;27.43;18.60;;;12.70;99.90;;;;;;4998768;28;20418;-73
2022/03/16 11:32:41;;;;;;;26.73;18.07;;;13.00;99.90;;;;;;4996945;28;20966;-70
2022/03/16 11:35:10;;;;;;;25.30;18.10;;;13.20;99.90;;;;;;4996834;28;20873;-74
2022/03/16 11:37:50;;;;;;;27.90;18.50;;;13.00;99.90;;;;;;4997163;28;20940;-72
2022/03/16 11:40:24;;;;;;;25.77;16.50;;;13.20;99.90;;;;;;4997422;28;20410;-73
2022/03/16 11:43:08;;;;;;;24.03;16.80;;;13.10;99.90;;;;;;4979828;28;20430;-70
2022/03/16 11:45:38;;;;;;;26.00;17.17;;;13.10;99.90;;;;;;4996489;28;20792;-72
2022/03/16 11:48:31;;;;;;;25.00;18.10;;;13.20;99.90;;;;;;4995985;28;20454;-75
2022/03/16 11:51:08;;;;;;;26.87;17.67;;;12.90;99.90;;;;;;4994776;28;20422;-76
2022/03/16 11:56:36;;;;;;;28.00;17.33;;;13.20;99.90;;;;;;4993655;28;20418;-75
2022/03/16 11:59:17;;;;;;;25.80;16.53;;;13.00;99.90;;;;;;4994041;28;20415;-75
2022/03/16 12:01:49;;;;;;;26.53;18.37;;;13.10;99.90;;;;;;4994152;28;20429;-76
2022/03/16 12:04:22;;;;;;;35.27;17.17;;;13.00;99.90;;;;;;4993163;28;20921;-75
2022/03/16 12:06:51;;;;;;;28.50;17.73;;;13.00;99.90;;;;;;4994347;28;20422;-76
2022/03/16 12:09:53;;;;;;;25.03;17.40;;;13.20;99.90;;;;;;4993443;28;20462;-71
2022/03/16 12:15:29;;;;;;;23.90;17.20;;;13.20;99.90;;;;;;4994108;28;20414;-71
2022/03/16 12:17:57;;;;;;;24.63;16.33;;;13.20;99.90;;;;;;4994171;28;21145;-71
2022/03/16 12:20:23;;;;;;;26.03;17.97;;;13.20;99.90;;;;;;4993389;28;20419;-71
2022/03/16 12:22:49;;;;;;;30.27;18.93;;;13.00;99.90;;;;;;4993369;28;20557;-71
2022/03/16 12:25:46;;;;;;;25.60;17.50;;;13.10;99.90;;;;;;4991947;28;20179;-71
2022/03/16 12:31:02;;;;;;;24.23;16.63;;;12.70;99.90;;;;;;4991887;28;20434;-70
2022/03/16 12:33:33;;;;;;;27.03;18.30;;;12.50;99.90;;;;;;4992557;28;20898;-71
2022/03/16 12:36:03;;;;;;;25.93;18.03;;;12.50;99.90;;;;;;4992327;28;20450;-71
2022/03/16 12:38:30;;;;;;;29.73;18.30;;;12.40;99.90;;;;;;4992449;28;20423;-70
2022/03/16 12:43:44;;;;;;;20.63;15.83;;;12.20;99.90;;;;;;4992445;28;20421;-71
2022/03/16 12:46:25;;;;;;;23.23;15.40;;;12.30;99.90;;;;;;4992186;28;20446;-71
2022/03/16 12:49:02;;;;;;;23.43;15.83;;;12.40;99.90;;;;;;4991853;28;21044;-71
2022/03/16 12:51:56;;;;;;;24.43;16.40;;;12.40;99.90;;;;;;4990757;28;20835;-70
2022/03/16 12:54:26;;;;;;;25.63;14.83;;;12.50;99.90;;;;;;4992264;28;20409;-71
2022/03/16 12:56:55;;;;;;;34.90;16.80;;;12.30;99.90;;;;;;4992154;28;20413;-70
2022/03/16 12:59:22;;;;;;;25.43;17.10;;;12.20;99.90;;;;;;4991524;28;20426;-71
2022/03/16 13:01:47;;;;;;;25.63;17.20;;;12.30;99.90;;;;;;4991623;28;20950;-70
2022/03/16 13:04:16;;;;;;;22.30;15.80;;;12.40;99.90;;;;;;4991675;28;20425;-71
2022/03/16 13:06:42;;;;;;;21.33;15.47;;;12.50;99.90;;;;;;4991842;28;20171;-70
2022/03/16 13:09:10;;;;;;;22.90;16.37;;;12.60;99.90;;;;;;4991788;28;20450;-71
2022/03/16 13:11:39;;;;;;;24.87;16.90;;;12.60;99.90;;;;;;4991860;28;20497;-71
2022/03/16 13:14:19;;;;;;;26.37;14.43;;;12.60;99.90;;;;;;4991674;28;20418;-71
2022/03/16 13:16:55;;;;;;;19.63;15.67;;;12.60;99.90;;;;;;4992201;28;20394;-70
2022/03/16 13:19:25;;;;;;;24.93;16.70;;;12.60;99.90;;;;;;4991412;28;20398;-71
2022/03/16 13:22:04;;;;;;;21.57;15.30;;;12.70;99.90;;;;;;4991950;28;20800;-71
2022/03/16 13:24:37;;;;;;;23.87;15.90;;;12.90;99.90;;;;;;4991959;28;20407;-71
2022/03/16 13:27:07;;;;;;;20.70;14.47;;;13.20;99.90;;;;;;4991369;28;20423;-71
2022/03/16 13:29:37;;;;;;;21.40;14.33;;;13.30;99.90;;;;;;4991576;28;20473;-71
2022/03/16 13:32:05;;;;;;;20.00;14.57;;;13.40;99.90;;;;;;4991448;28;20450;-71
2022/03/16 13:34:36;;;;;;;22.60;14.20;;;13.40;99.90;;;;;;4991587;28;20418;-71
2022/03/16 13:37:18;;;;;;;22.17;15.30;;;13.30;99.90;;;;;;4991643;28;20943;-71
2022/03/16 13:39:56;;;;;;;27.63;15.90;;;13.40;99.90;;;;;;4994027;28;20454;-71
2022/03/16 13:42:28;;;;;;;25.57;15.13;;;13.30;99.90;;;;;;4995305;28;20465;-71
2022/03/16 13:44:53;;;;;;;24.73;15.33;;;13.30;99.90;;;;;;4995016;28;20918;-71
2022/03/16 13:47:20;;;;;;;20.80;14.70;;;13.20;99.90;;;;;;4995338;28;20414;-71
2022/03/16 13:49:51;;;;;;;18.10;14.63;;;13.20;99.90;;;;;;4995076;28;20317;-72
2022/03/16 13:52:25;;;;;;;19.47;14.27;;;13.20;99.90;;;;;;4995291;28;20462;-71
2022/03/16 13:54:52;;;;;;;20.70;14.67;;;13.20;99.90;;;;;;4995529;28;20496;-71
2022/03/16 13:57:27;;;;;;;23.80;15.60;;;13.20;99.90;;;;;;4996125;28;20422;-71
2022/03/16 14:00:02;;;;;;;27.57;14.83;;;13.20;99.90;;;;;;4995378;28;20444;-73
2022/03/16 14:02:30;;;;;;;24.87;16.10;;;13.20;99.90;;;;;;4995101;28;20437;-71
2022/03/16 14:05:06;;;;;;;27.00;15.23;;;13.20;99.90;;;;;;4995341;28;20420;-71
2022/03/16 14:07:37;;;;;;;20.70;15.47;;;13.10;99.90;;;;;;4995076;28;20442;-71
2022/03/16 14:10:05;;;;;;;23.67;16.10;;;13.10;99.90;;;;;;4994686;28;20407;-71
2022/03/16 14:12:39;;;;;;;25.23;15.10;;;13.00;99.90;;;;;;4994525;28;20448;-71
2022/03/16 14:15:18;;;;;;;26.00;15.93;;;13.00;99.90;;;;;;4994944;28;20405;-71
2022/03/16 14:17:58;;;;;;;25.97;17.13;;;12.90;99.90;;;;;;4993840;28;20418;-71
2022/03/16 14:20:33;;;;;;;20.93;16.47;;;12.90;99.90;;;;;;4994412;28;20426;-71
2022/03/16 14:23:02;;;;;;;27.07;16.10;;;12.90;99.90;;;;;;4993586;28;20415;-71
2022/03/16 14:25:32;;;;;;;22.80;16.60;;;12.90;99.90;;;;;;4994231;28;20414;-72
2022/03/16 14:28:00;;;;;;;22.40;15.93;;;12.80;99.90;;;;;;4994760;28;20462;-71
2022/03/16 14:30:29;;;;;;;23.97;15.60;;;12.60;99.90;;;;;;4994244;28;20410;-71
2022/03/16 14:33:04;;;;;;;22.27;15.00;;;12.50;99.90;;;;;;4994245;28;20808;-73
2022/03/16 14:35:32;;;;;;;25.67;16.00;;;12.50;99.90;;;;;;4994408;28;20425;-73